Time;durP1;ratioP1;P1;durP2;ratioP2;P2;SDS_P1;SDS_P2;PMS_P1;PMS_P2;Temp;Humidity;BMP_temperature;BMP_pressure;BME280_temperature;BME280_humidity;BME280_pressure;Samples;Min_cycle;Max_cycle;Signal;HPM_P1;HPM_P2
2022/09/09 00:02:02;;;;;;;4.35;2.30;;;;;;;16.17;95.95;100163.88;5023041;28;20089;-79
2022/09/09 00:04:30;;;;;;;2.35;1.27;;;;;;;16.13;95.43;100156.56;5023380;28;20431;-79
2022/09/09 00:07:05;;;;;;;2.33;1.77;;;;;;;16.15;95.50;100157.97;5023497;28;20070;-79
2022/09/09 00:09:40;;;;;;;5.50;2.00;;;;;;;16.19;94.79;100156.56;5022033;28;20049;-79
2022/09/09 00:12:12;;;;;;;4.50;2.22;;;;;;;16.21;95.69;100151.91;5018650;28;20457;-79
2022/09/09 00:14:51;;;;;;;2.45;1.77;;;;;;;16.22;96.30;100150.88;5017147;28;20133;-78
2022/09/09 00:17:33;;;;;;;6.70;1.90;;;;;;;16.25;96.51;100145.19;5021300;28;20425;-80
2022/09/09 00:20:05;;;;;;;5.28;2.58;;;;;;;16.33;94.80;100143.38;5023776;28;20108;-80
2022/09/09 00:22:33;;;;;;;;;;;;;;;16.42;95.85;100145.59;5023138;28;20556;-81
2022/09/09 00:25:07;;;;;;;8.52;3.03;;;;;;;16.36;96.00;100141.13;5023808;28;20085;-80
2022/09/09 00:27:41;;;;;;;3.88;2.38;;;;;;;16.36;96.84;100151.69;5024980;28;20109;-79
2022/09/09 00:30:19;;;;;;;4.40;2.03;;;;;;;16.40;97.55;100154.72;5023670;28;20050;-80
2022/09/09 00:32:47;;;;;;;7.15;2.22;;;;;;;16.38;97.65;100160.22;5005288;28;20050;-80
2022/09/09 00:35:19;;;;;;;5.85;2.58;;;;;;;16.34;97.48;100153.72;5005563;28;20145;-80
2022/09/09 00:37:48;;;;;;;4.10;2.25;;;;;;;16.38;97.74;100164.69;5024344;28;20073;-80
2022/09/09 00:40:23;;;;;;;4.75;2.30;;;;;;;16.39;97.92;100163.66;5025118;28;20042;-80
2022/09/09 00:43:00;;;;;;;4.38;2.47;;;;;;;16.38;97.87;100154.94;5020928;28;20050;-80
2022/09/09 00:45:53;;;;;;;3.78;2.13;;;;;;;16.34;97.65;100156.34;5020248;28;20073;-80
2022/09/09 00:48:22;;;;;;;6.40;2.50;;;;;;;16.23;97.16;100139.31;5020764;28;20046;-79
2022/09/09 00:50:55;;;;;;;4.50;2.53;;;;;;;16.29;98.60;100156.16;5020346;28;20060;-79
2022/09/09 00:53:38;;;;;;;7.15;2.55;;;;;;;16.20;99.18;100152.91;5020079;28;20405;-79
2022/09/09 00:56:13;;;;;;;3.83;2.25;;;;;;;16.10;99.71;100147.22;5020336;28;20157;-79
2022/09/09 00:58:39;;;;;;;6.88;2.90;;;;;;;16.13;100.00;100156.56;5017430;28;20060;-79
2022/09/09 01:10:00;;;;;;;7.57;3.78;;;;;;;15.88;100.00;100151.09;4991272;28;20050;-83
2022/09/09 01:12:56;;;;;;;10.93;3.17;;;;;;;15.72;100.00;100133.81;5024553;28;20182;-82
2022/09/09 01:19:26;;;;;;;6.22;2.83;;;;;;;15.79;100.00;100157.56;5018142;28;20057;-81
2022/09/09 01:25:41;;;;;;;5.00;2.90;;;;;;;15.59;100.00;100147.00;5012671;28;20060;-82
2022/09/09 01:28:39;;;;;;;6.10;3.15;;;;;;;15.52;100.00;100131.16;5006734;28;20053;-81
2022/09/09 01:34:59;;;;;;;5.43;2.88;;;;;;;15.58;100.00;100135.66;5016824;28;20049;-80
2022/09/09 01:37:25;;;;;;;6.20;3.22;;;;;;;15.55;100.00;100138.66;5006298;28;20058;-81
2022/09/09 01:39:52;;;;;;;7.85;3.40;;;;;;;15.60;100.00;100148.59;5002547;28;20046;-81
2022/09/09 01:42:18;;;;;;;5.35;2.88;;;;;;;15.55;100.00;100148.41;5003488;28;20089;-81
2022/09/09 01:44:46;;;;;;;6.60;3.17;;;;;;;15.45;100.00;100151.41;5003396;28;20077;-81
2022/09/09 01:47:13;;;;;;;6.70;2.97;;;;;;;15.45;100.00;100148.78;5019583;28;20050;-81
2022/09/09 01:49:40;;;;;;;5.50;2.97;;;;;;;15.39;100.00;100154.03;5020708;28;20097;-80
2022/09/09 01:52:08;;;;;;;5.78;2.83;;;;;;;15.38;100.00;100155.84;5022525;28;20054;-80
2022/09/09 01:54:35;;;;;;;10.02;2.88;;;;;;;15.37;100.00;100146.31;5003417;28;20109;-81
2022/09/09 01:57:09;;;;;;;5.00;2.42;;;;;;;15.37;100.00;100145.50;5001575;28;20073;-81
2022/09/09 01:59:55;;;;;;;3.92;2.60;;;;;;;15.46;100.00;100155.66;4997090;28;20403;-81
2022/09/09 02:02:28;;;;;;;4.50;2.72;;;;;;;15.51;100.00;100155.88;5017528;28;20090;-78
2022/09/09 02:05:09;;;;;;;2.72;2.13;;;;;;;15.59;98.90;100155.75;5017100;28;20081;-81
2022/09/09 02:07:40;;;;;;;5.65;2.60;;;;;;;15.63;98.16;100150.03;5022397;28;20058;-80
2022/09/09 02:10:12;;;;;;;4.70;2.20;;;;;;;15.69;98.14;100154.50;5021566;28;20050;-80
2022/09/09 02:12:44;;;;;;;5.60;2.33;;;;;;;15.69;98.27;100154.50;4999927;28;20054;-79
2022/09/09 02:15:25;;;;;;;5.97;2.60;;;;;;;15.65;98.10;100148.00;4999705;28;20088;-79
2022/09/09 02:17:53;;;;;;;6.35;2.65;;;;;;;15.65;98.18;100150.66;5001873;28;20125;-78
2022/09/09 02:20:22;;;;;;;6.38;2.85;;;;;;;15.56;98.00;100150.00;5019845;28;20052;-79
2022/09/09 02:22:52;;;;;;;4.32;2.60;;;;;;;15.57;98.63;100149.84;5016018;28;20160;-78
2022/09/09 02:25:23;;;;;;;6.78;2.58;;;;;;;15.58;99.00;100146.19;5018870;28;20046;-80
2022/09/09 02:27:51;;;;;;;4.05;2.50;;;;;;;15.56;98.93;100144.75;5005796;28;20074;-78
2022/09/09 02:30:21;;;;;;;6.82;3.92;;;;;;;15.63;99.08;100150.03;4999951;28;20050;-81
2022/09/09 02:32:51;;;;;;;4.72;2.60;;;;;;;15.61;98.79;100147.59;5001800;28;20053;-80
2022/09/09 02:35:22;;;;;;;4.50;2.63;;;;;;;15.63;98.95;100145.56;5002189;28;20464;-80
2022/09/09 02:37:52;;;;;;;4.75;2.67;;;;;;;15.64;98.68;100141.09;5005198;28;20089;-80
2022/09/09 02:40:20;;;;;;;5.45;2.40;;;;;;;15.74;98.38;100152.09;5001514;28;20125;-81
2022/09/09 02:42:49;;;;;;;3.95;2.17;;;;;;;15.70;98.50;100145.59;5002114;28;20051;-81
2022/09/09 02:45:20;;;;;;;7.40;2.78;;;;;;;15.65;98.60;100135.63;5002258;28;20500;-80
2022/09/09 02:47:54;;;;;;;5.85;2.90;;;;;;;15.61;98.70;100147.59;5000542;28;20054;-80
2022/09/09 02:50:26;;;;;;;6.65;2.80;;;;;;;15.66;98.64;100144.34;5013686;28;20195;-81
2022/09/09 02:53:02;;;;;;;7.68;3.05;;;;;;;15.60;98.45;100141.50;5020656;28;20090;-81
2022/09/09 02:55:39;;;;;;;6.78;2.90;;;;;;;15.60;98.40;100136.22;5018579;28;20164;-80
2022/09/09 02:58:11;;;;;;;5.00;2.78;;;;;;;15.60;99.13;100135.41;5021445;28;20046;-80
2022/09/09 03:00:40;;;;;;;6.30;3.27;;;;;;;15.60;98.43;100138.06;5008018;28;20066;-80
2022/09/09 03:03:09;;;;;;;7.28;3.33;;;;;;;15.62;98.37;100132.59;5025076;28;20427;-82
2022/09/09 03:05:35;;;;;;;8.02;3.10;;;;;;;15.64;97.97;100135.84;5013930;28;20054;-81
2022/09/09 03:08:03;;;;;;;8.40;2.88;;;;;;;15.69;98.71;100141.31;5003981;28;20367;-82
2022/09/09 03:10:29;;;;;;;5.05;2.70;;;;;;;15.68;98.15;100131.78;4999736;28;20050;-82
2022/09/09 03:12:56;;;;;;;6.15;2.90;;;;;;;15.68;97.95;100140.50;5003362;28;20042;-83
2022/09/09 03:15:23;;;;;;;5.35;2.80;;;;;;;15.73;98.46;100139.91;4998365;28;20142;-78
2022/09/09 03:17:52;;;;;;;11.40;3.28;;;;;;;15.70;98.38;100138.47;5000162;28;20159;-78
2022/09/09 03:20:18;;;;;;;4.32;2.72;;;;;;;15.77;97.72;100139.31;4999843;28;20042;-80
2022/09/09 03:22:45;;;;;;;9.75;3.25;;;;;;;15.76;98.09;100134.22;4997481;28;20141;-79
2022/09/09 03:25:11;;;;;;;5.28;2.80;;;;;;;15.74;98.12;100138.91;4995311;28;20141;-80
2022/09/09 03:27:38;;;;;;;8.68;3.38;;;;;;;15.75;97.94;100128.16;4995803;28;20470;-79
2022/09/09 03:30:06;;;;;;;8.63;3.88;;;;;;;15.76;98.38;100142.16;4995615;28;20110;-78
2022/09/09 03:32:32;;;;;;;7.20;3.28;;;;;;;15.81;98.34;100131.81;5013777;28;20104;-80
2022/09/09 03:35:00;;;;;;;6.78;3.50;;;;;;;15.77;98.11;100134.03;5014783;28;20081;-79
2022/09/09 03:37:27;;;;;;;5.55;3.08;;;;;;;15.79;98.28;100136.47;4999302;28;20093;-80
2022/09/09 03:39:55;;;;;;;8.45;3.28;;;;;;;15.83;98.04;100135.06;4994688;28;20061;-78
2022/09/09 03:42:22;;;;;;;9.05;3.15;;;;;;;15.85;98.13;100136.47;4995269;28;20412;-79
2022/09/09 03:44:49;;;;;;;6.72;3.10;;;;;;;15.88;98.20;100138.72;5009737;28;20113;-80
2022/09/09 03:47:16;;;;;;;7.28;3.50;;;;;;;15.85;98.40;100131.19;5016650;28;20057;-81
2022/09/09 03:49:43;;;;;;;10.07;4.00;;;;;;;15.89;98.06;100139.53;5008838;28;20089;-80
2022/09/09 03:52:11;;;;;;;7.72;3.58;;;;;;;15.87;98.41;100136.28;4998986;28;20505;-80
2022/09/09 03:54:39;;;;;;;7.38;3.38;;;;;;;15.87;98.38;100134.44;5005836;28;20548;-80
2022/09/09 03:57:06;;;;;;;9.90;3.38;;;;;;;15.92;98.16;100137.28;5019143;28;20064;-80
2022/09/09 03:59:32;;;;;;;9.85;3.45;;;;;;;15.92;98.03;100139.13;5017775;28;20136;-79
2022/09/09 04:01:59;;;;;;;9.00;3.45;;;;;;;15.93;98.07;100125.72;5002060;28;20437;-79
2022/09/09 04:04:26;;;;;;;10.32;3.95;;;;;;;15.99;98.23;100139.94;4998626;28;20053;-80
2022/09/09 04:06:54;;;;;;;8.60;3.28;;;;;;;15.94;98.06;100139.72;4999034;28;20428;-80
2022/09/09 04:09:22;;;;;;;7.97;3.25;;;;;;;15.97;97.97;100135.88;4999122;28;20050;-81
2022/09/09 04:11:49;;;;;;;8.18;3.45;;;;;;;16.00;97.68;100138.94;5000153;28;20132;-79
2022/09/09 04:14:17;;;;;;;8.40;3.25;;;;;;;16.00;97.38;100138.94;4999708;28;20073;-79
2022/09/09 04:16:44;;;;;;;5.55;3.22;;;;;;;16.08;97.63;100140.53;5000935;28;20046;-79
2022/09/09 04:19:12;;;;;;;6.43;3.10;;;;;;;16.01;97.10;100137.91;4995115;28;20133;-81
2022/09/09 04:21:40;;;;;;;6.82;3.60;;;;;;;16.03;97.70;100143.81;5003115;28;20054;-79
2022/09/09 04:24:07;;;;;;;12.35;4.07;;;;;;;16.08;96.98;100138.69;5018351;28;20046;-80
2022/09/09 04:26:37;;;;;;;9.27;3.42;;;;;;;16.03;97.29;100135.88;5017975;28;20108;-79
2022/09/09 04:29:04;;;;;;;10.48;3.13;;;;;;;16.05;96.97;100127.75;5019529;28;20449;-79
2022/09/09 04:31:34;;;;;;;8.18;3.40;;;;;;;16.05;97.20;100139.13;5022229;28;20046;-82
2022/09/09 04:34:05;;;;;;;12.30;3.92;;;;;;;16.05;97.51;100133.84;5024648;28;20054;-81
2022/09/09 04:36:34;;;;;;;10.43;3.75;;;;;;;16.07;97.64;100136.28;5024229;28;20060;-81
2022/09/09 04:39:01;;;;;;;6.38;3.13;;;;;;;16.09;97.94;100144.78;5018848;28;20046;-81
2022/09/09 04:41:31;;;;;;;9.98;3.22;;;;;;;16.05;97.40;100135.69;5004094;28;20101;-80
2022/09/09 04:43:59;;;;;;;7.05;3.50;;;;;;;16.07;97.22;100139.72;5006798;28;20054;-79
2022/09/09 04:46:26;;;;;;;7.88;3.35;;;;;;;16.07;97.37;100137.06;5010094;28;20042;-80
2022/09/09 04:48:53;;;;;;;13.95;3.45;;;;;;;16.05;97.29;100138.31;5004205;28;20069;-80
2022/09/09 04:51:20;;;;;;;7.05;3.15;;;;;;;16.07;97.58;100137.06;5004854;28;20477;-81
2022/09/09 04:53:48;;;;;;;11.68;3.58;;;;;;;16.06;97.11;100140.75;5002737;28;20110;-80
2022/09/09 04:56:17;;;;;;;7.68;3.15;;;;;;;16.14;96.54;100145.00;5001642;28;20052;-80
2022/09/09 04:58:44;;;;;;;8.27;3.20;;;;;;;16.17;96.38;100145.41;5001973;28;20066;-80
2022/09/09 05:01:14;;;;;;;7.03;3.25;;;;;;;16.11;96.79;100132.19;5010199;28;20061;-80
2022/09/09 05:03:41;;;;;;;7.35;3.30;;;;;;;16.20;95.82;100133.63;5019796;28;20128;-80
2022/09/09 05:06:09;;;;;;;6.30;3.45;;;;;;;16.15;96.51;100136.88;5019451;28;20050;-80
2022/09/09 05:08:37;;;;;;;8.63;3.30;;;;;;;16.15;95.93;100138.69;5003291;28;20152;-80
2022/09/09 05:11:03;;;;;;;8.55;3.55;;;;;;;16.18;96.14;100125.91;5000136;28;20125;-79
2022/09/09 05:13:31;;;;;;;7.47;3.17;;;;;;;16.20;96.08;100136.25;5000578;28;20105;-80
2022/09/09 05:15:58;;;;;;;10.23;3.28;;;;;;;16.23;95.65;100141.13;5003253;28;20050;-79
2022/09/09 05:18:26;;;;;;;5.68;3.13;;;;;;;16.30;95.04;100138.50;4999530;28;20078;-82
2022/09/09 05:20:53;;;;;;;7.43;3.35;;;;;;;16.34;94.58;100137.88;5001139;28;20133;-81
2022/09/09 05:23:20;;;;;;;7.38;3.42;;;;;;;16.34;94.35;100129.97;5000285;28;20085;-79
2022/09/09 05:25:56;;;;;;;7.20;3.50;;;;;;;16.38;93.89;100136.44;5006245;28;20042;-80
2022/09/09 05:28:24;;;;;;;15.55;3.67;;;;;;;16.41;93.96;100132.59;5007686;28;20050;-81
2022/09/09 05:30:57;;;;;;;5.82;3.55;;;;;;;16.38;93.52;100127.72;5020899;28;20109;-81
2022/09/09 05:33:24;;;;;;;15.18;3.78;;;;;;;16.45;93.78;100134.63;5022093;28;20060;-80
2022/09/09 05:35:57;;;;;;;10.65;3.92;;;;;;;16.43;93.59;100136.66;5022246;28;20077;-80
2022/09/09 05:38:25;;;;;;;10.55;3.30;;;;;;;16.50;93.04;100142.72;5020272;28;20129;-80
2022/09/09 05:40:52;;;;;;;11.73;3.30;;;;;;;16.48;92.76;100149.25;5019206;28;20064;-81
2022/09/09 05:43:21;;;;;;;11.80;3.65;;;;;;;16.50;92.06;100144.56;5019711;28;20458;-80
2022/09/09 05:45:48;;;;;;;8.90;3.25;;;;;;;16.48;93.04;100144.78;5019724;28;20046;-80
2022/09/09 05:48:16;;;;;;;12.07;3.10;;;;;;;16.53;92.76;100149.44;5018674;28;20077;-81
2022/09/09 05:50:45;;;;;;;10.38;3.58;;;;;;;16.52;91.94;100151.25;5019337;28;20058;-81
2022/09/09 05:53:13;;;;;;;8.65;3.05;;;;;;;16.60;91.34;100148.38;5019245;28;20060;-81
2022/09/09 05:55:39;;;;;;;9.52;3.05;;;;;;;16.67;90.59;100147.59;5019304;28;20402;-81
2022/09/09 05:58:06;;;;;;;7.28;3.28;;;;;;;16.69;90.66;100148.19;5027548;28;20057;-80
2022/09/09 06:00:32;;;;;;;8.93;2.83;;;;;;;16.74;90.61;100154.47;5027385;28;20081;-82
2022/09/09 06:02:59;;;;;;;10.23;3.55;;;;;;;16.85;90.08;100158.31;5029289;28;20100;-83
2022/09/09 06:05:28;;;;;;;6.93;2.85;;;;;;;16.88;89.99;100160.53;5008765;28;20069;-81
2022/09/09 06:07:55;;;;;;;13.52;3.00;;;;;;;16.89;89.36;100162.97;5006269;28;20189;-82
2022/09/09 06:10:23;;;;;;;7.88;2.92;;;;;;;16.91;89.17;100157.47;5025719;28;20046;-82
2022/09/09 06:12:53;;;;;;;7.63;3.15;;;;;;;16.91;89.45;100152.19;5022369;28;20132;-81
2022/09/09 06:15:19;;;;;;;12.90;3.33;;;;;;;16.90;88.65;100155.84;5006433;28;20073;-81
2022/09/09 06:17:47;;;;;;;12.90;4.38;;;;;;;16.92;89.04;100161.75;5005163;28;20464;-82
2022/09/09 06:20:14;;;;;;;16.35;3.45;;;;;;;16.91;89.56;100154.84;5017720;28;20058;-81
2022/09/09 06:22:41;;;;;;;8.38;2.78;;;;;;;16.99;88.98;100154.63;5022534;28;20149;-82
2022/09/09 06:25:09;;;;;;;6.30;2.72;;;;;;;17.04;89.11;100164.53;5020405;28;20048;-82
2022/09/09 06:27:37;;;;;;;10.57;3.00;;;;;;;17.05;89.11;100150.28;5022194;28;20050;-83
2022/09/09 06:30:05;;;;;;;13.90;3.38;;;;;;;17.08;88.97;100157.81;5006806;28;20138;-82
2022/09/09 06:32:36;;;;;;;9.43;3.47;;;;;;;17.11;87.81;100160.84;5005427;28;20046;-81
2022/09/09 06:35:03;;;;;;;10.45;2.88;;;;;;;17.21;86.85;100161.22;5003260;28;20081;-82
2022/09/09 06:37:29;;;;;;;8.07;2.85;;;;;;;17.33;86.84;100160.56;5004143;28;20070;-80
2022/09/09 06:39:56;;;;;;;14.20;3.53;;;;;;;17.30;86.76;100153.03;5002138;28;20106;-80
2022/09/09 06:42:23;;;;;;;18.25;3.47;;;;;;;17.35;87.35;100156.69;5003820;28;20089;-80
2022/09/09 06:44:52;;;;;;;21.75;4.53;;;;;;;17.41;86.41;100155.03;5023465;28;20054;-81
2022/09/09 06:47:18;;;;;;;11.95;2.70;;;;;;;17.59;85.31;100153.25;5005210;28;20461;-82
2022/09/09 06:49:45;;;;;;;6.50;2.90;;;;;;;17.79;83.88;100165.59;5002662;28;20042;-80
2022/09/09 06:52:11;;;;;;;5.95;2.85;;;;;;;18.31;82.51;100158.25;5000361;28;20061;-81
2022/09/09 06:54:38;;;;;;;14.30;2.88;;;;;;;19.20;78.48;100150.56;5002571;28;20550;-80
2022/09/09 06:57:07;;;;;;;7.68;2.80;;;;;;;20.20;75.35;100155.22;5009499;28;20458;-80
2022/09/09 06:59:33;;;;;;;12.57;3.17;;;;;;;21.31;71.05;100170.09;5021469;28;20050;-79
2022/09/09 07:02:01;;;;;;;7.18;2.70;;;;;;;22.15;68.09;100165.72;5020329;28;20113;-82
2022/09/09 07:04:28;;;;;;;7.97;2.92;;;;;;;22.72;66.56;100160.09;5022425;28;20077;-80
2022/09/09 07:06:54;;;;;;;10.15;2.67;;;;;;;22.87;65.11;100158.72;5022782;28;20073;-82
2022/09/09 07:09:21;;;;;;;6.70;2.88;;;;;;;23.73;63.08;100165.81;5014146;28;20077;-80
2022/09/09 07:11:50;;;;;;;8.55;2.88;;;;;;;24.06;62.27;100162.09;5003118;28;20089;-82
2022/09/09 07:14:17;;;;;;;10.02;3.17;;;;;;;23.06;64.34;100147.50;5001753;28;20105;-81
2022/09/09 07:16:45;;;;;;;7.78;2.95;;;;;;;23.83;62.25;100162.44;5015083;28;20065;-82
2022/09/09 07:19:14;;;;;;;10.20;2.72;;;;;;;24.12;62.10;100158.38;5018637;28;20050;-81
2022/09/09 07:21:41;;;;;;;7.47;2.72;;;;;;;24.73;60.34;100165.97;5022041;28;20053;-81
2022/09/09 07:24:09;;;;;;;8.50;2.67;;;;;;;25.08;58.50;100162.66;5004486;28;20116;-82
2022/09/09 07:29:22;;;;;;;7.50;2.80;;;;;;;25.16;56.84;100164.03;5109066;23;20061;-84
2022/09/09 07:32:02;;;;;;;6.88;2.90;;;;;;;25.12;57.42;100161.06;5022874;28;20053;-82
2022/09/09 07:35:00;;;;;;;7.60;2.95;;;;;;;24.71;58.53;100155.53;5026056;28;20054;-82
2022/09/09 07:37:46;;;;;;;5.50;2.80;;;;;;;24.57;57.51;100157.09;5024281;28;20125;-82
2022/09/09 07:42:59;;;;;;;6.90;2.80;;;;;;;24.72;57.57;100178.56;5021934;28;20053;-81
2022/09/09 07:45:47;;;;;;;7.20;2.67;;;;;;;25.17;54.91;100179.84;5032007;28;20047;-83
2022/09/09 07:48:26;;;;;;;8.38;2.65;;;;;;;23.60;59.05;100160.09;5032033;28;20066;-82
2022/09/09 07:51:18;;;;;;;6.55;2.63;;;;;;;22.09;63.41;100163.22;5036351;28;20156;-81
2022/09/09 07:53:48;;;;;;;4.55;2.28;;;;;;;21.89;63.81;100158.34;5024031;28;20046;-79
2022/09/09 07:56:38;;;;;;;9.18;2.97;;;;;;;21.33;65.11;100165.34;5036413;28;20187;-79
2022/09/09 07:59:13;;;;;;;8.70;2.55;;;;;;;20.80;65.78;100142.47;5038906;28;20091;-81
2022/09/09 08:02:09;;;;;;;14.57;3.47;;;;;;;20.48;64.96;100146.56;5031452;28;20106;-81
2022/09/09 08:04:41;;;;;;;9.52;3.00;;;;;;;20.56;64.62;100138.25;5044557;28;20053;-79
2022/09/09 08:07:16;;;;;;;9.00;3.03;;;;;;;20.77;65.75;100147.47;5053075;28;20057;-80
2022/09/09 08:09:43;;;;;;;6.25;2.72;;;;;;;21.10;64.34;100155.56;5048703;28;20046;-82
2022/09/09 08:12:10;;;;;;;7.30;3.25;;;;;;;21.72;62.37;100160.19;5039797;28;20078;-79
2022/09/09 08:14:37;;;;;;;12.73;3.17;;;;;;;22.78;60.00;100166.31;5034198;28;20049;-81
2022/09/09 08:17:04;;;;;;;8.98;2.70;;;;;;;23.56;56.18;100173.16;5033036;28;20133;-81
2022/09/09 08:19:33;;;;;;;9.73;2.40;;;;;;;22.47;59.12;100170.44;5033777;28;20045;-82
2022/09/09 08:22:01;;;;;;;8.63;2.63;;;;;;;22.34;59.63;100168.13;5038905;28;20061;-80
2022/09/09 08:24:30;;;;;;;5.75;2.72;;;;;;;22.71;59.37;100177.16;5026588;28;20060;-81
2022/09/09 08:26:57;;;;;;;9.55;3.03;;;;;;;21.76;61.79;100169.28;5027697;28;20117;-81
2022/09/09 08:29:24;;;;;;;5.00;2.50;;;;;;;21.41;62.88;100148.19;5028951;28;20042;-81
2022/09/09 08:31:54;;;;;;;7.47;2.60;;;;;;;21.35;63.45;100170.44;5024943;28;20049;-80
2022/09/09 08:34:21;;;;;;;7.57;3.22;;;;;;;21.02;64.55;100169.25;5024684;28;20049;-80
2022/09/09 08:36:49;;;;;;;6.18;2.15;;;;;;;21.59;64.21;100155.97;5023653;28;20528;-80
2022/09/09 08:39:17;;;;;;;7.80;2.88;;;;;;;21.50;63.45;100174.19;5026828;28;20053;-79
2022/09/09 08:42:04;;;;;;;9.55;2.83;;;;;;;21.32;62.88;100169.03;5030254;28;20104;-80
2022/09/09 08:44:46;;;;;;;8.23;3.00;;;;;;;21.37;61.93;100165.69;5012426;28;20072;-80
2022/09/09 08:47:23;;;;;;;7.03;2.30;;;;;;;21.52;60.66;100172.09;5024913;28;20081;-81
2022/09/09 08:50:06;;;;;;;9.40;3.20;;;;;;;21.96;60.36;100174.16;5022863;28;20105;-81
2022/09/09 08:52:39;;;;;;;5.35;2.15;;;;;;;22.28;59.70;100180.56;5030161;28;20054;-81
2022/09/09 08:55:21;;;;;;;9.95;2.42;;;;;;;22.31;58.50;100177.41;5024972;28;20202;-83
2022/09/09 08:57:52;;;;;;;4.80;2.30;;;;;;;21.94;58.30;100176.25;5023736;28;20451;-80
2022/09/09 09:00:18;;;;;;;5.45;2.25;;;;;;;21.97;59.19;100179.25;5022359;28;20109;-80
2022/09/09 09:02:58;;;;;;;5.90;2.13;;;;;;;22.06;58.03;100175.16;5025474;28;20085;-82
2022/09/09 09:05:33;;;;;;;9.23;2.03;;;;;;;21.77;58.89;100170.91;5024163;28;20101;-81
2022/09/09 09:08:14;;;;;;;6.40;3.03;;;;;;;21.80;59.30;100181.09;5025044;28;20076;-80
2022/09/09 09:10:48;;;;;;;7.97;3.40;;;;;;;21.59;59.70;100179.13;5026779;28;20113;-80
2022/09/09 09:13:20;;;;;;;10.18;2.30;;;;;;;21.11;60.92;100173.16;5027616;28;20050;-83
2022/09/09 09:15:49;;;;;;;;;;;;;;;21.45;60.02;100183.94;5027459;28;20141;-80
2022/09/09 09:18:18;;;;;;;5.32;2.20;;;;;;;21.28;60.73;100177.75;5026447;28;20025;-82
2022/09/09 09:20:53;;;;;;;7.63;2.33;;;;;;;21.19;61.90;100178.09;5026328;28;20069;-80
2022/09/09 09:23:23;;;;;;;7.63;2.30;;;;;;;21.44;60.86;100185.78;5027737;28;20050;-81
2022/09/09 09:25:53;;;;;;;9.70;2.65;;;;;;;21.34;61.42;100182.13;5028755;28;20089;-82
2022/09/09 09:28:24;;;;;;;5.25;2.40;;;;;;;20.98;61.15;100183.25;5025075;28;20056;-81
2022/09/09 09:30:57;;;;;;;7.30;2.15;;;;;;;20.68;62.74;100189.56;5025904;28;20420;-79
2022/09/09 09:33:28;;;;;;;4.97;2.25;;;;;;;20.52;63.58;100176.94;5024014;28;20049;-79
2022/09/09 09:35:55;;;;;;;6.53;1.95;;;;;;;20.79;63.07;100179.94;5025295;28;20053;-82
2022/09/09 09:38:24;;;;;;;4.78;2.03;;;;;;;20.81;63.93;100183.97;5023946;28;20106;-82
2022/09/09 09:40:52;;;;;;;8.35;2.38;;;;;;;20.94;63.83;100182.09;5025379;28;20113;-81
2022/09/09 09:43:28;;;;;;;4.25;2.15;;;;;;;20.68;64.80;100188.75;5024096;28;20045;-81
2022/09/09 09:45:55;;;;;;;5.95;2.15;;;;;;;20.77;64.83;100182.03;5020880;28;20060;-81
2022/09/09 09:48:22;;;;;;;9.55;2.38;;;;;;;20.81;65.11;100178.63;5019298;28;20080;-82
2022/09/09 09:50:51;;;;;;;6.95;2.55;;;;;;;20.81;64.50;100173.31;5018549;28;20069;-81
2022/09/09 09:53:21;;;;;;;5.00;2.20;;;;;;;21.05;64.54;100178.59;5018160;28;20089;-81
2022/09/09 09:55:54;;;;;;;6.55;2.80;;;;;;;20.96;64.62;100182.66;5018875;28;20152;-81
2022/09/09 09:58:21;;;;;;;5.40;2.22;;;;;;;21.27;64.06;100186.78;5017378;28;20081;-80
2022/09/09 10:00:54;;;;;;;4.88;2.13;;;;;;;21.45;63.99;100179.41;5017483;28;20546;-79
2022/09/09 10:03:25;;;;;;;;;;;;;;;21.30;63.17;100186.28;5018378;28;20149;-79
2022/09/09 10:05:52;;;;;;;6.43;2.10;;;;;;;21.52;63.36;100169.44;5017476;28;20399;-81
2022/09/09 10:08:20;;;;;;;8.70;2.30;;;;;;;21.67;62.96;100170.75;5017626;28;20133;-81
2022/09/09 10:11:06;;;;;;;4.93;2.05;;;;;;;22.12;61.92;100178.72;5017584;28;20096;-81
2022/09/09 10:13:46;;;;;;;11.85;2.33;;;;;;;22.52;60.85;100181.19;5018248;28;20124;-82
2022/09/09 10:16:26;;;;;;;11.98;2.13;;;;;;;21.61;60.49;100177.84;5018028;28;20123;-81
2022/09/09 10:19:00;;;;;;;7.63;2.38;;;;;;;21.72;60.56;100174.31;5016817;28;20053;-80
2022/09/09 10:21:45;;;;;;;5.35;2.00;;;;;;;21.89;61.46;100173.50;5019199;28;20501;-84
2022/09/09 10:24:32;;;;;;;4.13;1.75;;;;;;;22.05;60.92;100172.75;5019439;28;20136;-81
2022/09/09 10:27:06;;;;;;;6.63;2.00;;;;;;;21.55;62.01;100172.66;5018612;28;20110;-81
2022/09/09 10:29:59;;;;;;;5.50;2.03;;;;;;;21.72;62.45;100173.50;5018447;28;20132;-81
2022/09/09 10:32:40;;;;;;;3.08;1.77;;;;;;;22.21;61.18;100177.28;5017552;28;20056;-81
2022/09/09 10:35:13;;;;;;;5.18;2.22;;;;;;;22.51;59.63;100172.38;5017254;28;20054;-81
2022/09/09 10:38:01;;;;;;;7.82;2.55;;;;;;;22.33;60.77;100169.16;5017719;28;20069;-80
2022/09/09 10:40:34;;;;;;;6.43;2.58;;;;;;;22.59;60.06;100178.34;5017208;28;20048;-80
2022/09/09 10:43:13;;;;;;;6.05;2.08;;;;;;;23.09;59.01;100179.03;5017823;28;20081;-81
2022/09/09 10:45:53;;;;;;;3.95;1.70;;;;;;;22.97;59.14;100164.19;5017019;28;20054;-79
2022/09/09 10:48:48;;;;;;;7.20;2.20;;;;;;;22.71;59.39;100166.50;5016981;28;20054;-79
2022/09/09 10:51:26;;;;;;;4.55;1.83;;;;;;;22.61;59.44;100174.38;5018461;28;20113;-80
2022/09/09 10:54:08;;;;;;;5.72;1.85;;;;;;;22.44;60.12;100165.59;5017473;28;20085;-81
2022/09/09 10:56:36;;;;;;;5.75;1.92;;;;;;;22.66;60.37;100162.97;5017942;28;20054;-80
2022/09/09 10:59:07;;;;;;;4.07;1.83;;;;;;;23.20;59.27;100158.56;5017102;28;20081;-78
2022/09/09 11:01:41;;;;;;;11.65;2.78;;;;;;;23.29;58.64;100156.25;5017382;28;20060;-81
2022/09/09 11:04:18;;;;;;;6.35;1.80;;;;;;;22.82;58.96;100154.13;5017548;28;20053;-78
2022/09/09 11:06:52;;;;;;;7.22;2.45;;;;;;;22.41;58.86;100158.91;5017856;28;20137;-80
2022/09/09 11:09:23;;;;;;;6.32;2.30;;;;;;;22.37;59.52;100159.63;5016248;28;20531;-79
2022/09/09 11:11:54;;;;;;;3.87;1.57;;;;;;;21.93;59.19;100154.13;5019339;28;20072;-80
2022/09/09 11:14:29;;;;;;;4.07;1.80;;;;;;;21.83;58.81;100153.97;5016443;28;20295;-80
2022/09/09 11:17:00;;;;;;;5.82;1.58;;;;;;;21.80;59.01;100155.25;5024201;28;20528;-80
2022/09/09 11:19:34;;;;;;;6.88;2.58;;;;;;;21.55;61.03;100162.00;5035827;28;20034;-80
2022/09/09 11:22:03;;;;;;;5.03;2.28;;;;;;;21.46;62.56;100153.59;5036124;28;20069;-81
2022/09/09 11:24:36;;;;;;;6.85;2.67;;;;;;;21.60;62.77;100141.63;5035845;28;20040;-80
2022/09/09 11:27:11;;;;;;;6.43;2.47;;;;;;;21.70;62.15;100139.13;5036156;28;20030;-80
2022/09/09 11:30:12;;;;;;;10.00;2.67;;;;;;;21.85;61.29;100146.53;5033793;28;20038;-82
2022/09/09 11:33:08;;;;;;;7.43;1.80;;;;;;;21.81;61.33;100150.75;5022810;28;20054;-80
2022/09/09 11:35:50;;;;;;;7.28;2.30;;;;;;;22.01;61.13;100151.09;5018451;28;20565;-79
2022/09/09 11:38:22;;;;;;;6.07;1.90;;;;;;;21.78;60.70;100151.22;5018529;28;20100;-80
2022/09/09 11:40:57;;;;;;;8.13;2.58;;;;;;;21.70;61.01;100143.66;5019206;28;20089;-80
2022/09/09 11:43:26;;;;;;;11.85;2.50;;;;;;;21.57;61.20;100144.75;5018660;28;20107;-82
2022/09/09 11:45:57;;;;;;;5.78;2.38;;;;;;;21.48;61.26;100149.66;5018641;28;20424;-82
2022/09/09 11:48:27;;;;;;;6.13;2.13;;;;;;;21.29;62.20;100144.75;5017794;28;20516;-81
2022/09/09 11:51:05;;;;;;;5.18;2.25;;;;;;;21.29;62.92;100142.09;5018878;28;20134;-80
2022/09/09 11:53:32;;;;;;;8.80;2.15;;;;;;;21.19;62.58;100148.03;5018474;28;20145;-82
2022/09/09 11:56:06;;;;;;;4.72;2.15;;;;;;;21.26;62.34;100147.94;5018093;28;20053;-82
2022/09/09 11:58:49;;;;;;;4.75;2.13;;;;;;;21.23;62.35;100151.06;5018778;28;20495;-82
2022/09/09 12:01:42;;;;;;;6.97;2.38;;;;;;;21.20;62.80;100155.78;5006376;28;20054;-81
2022/09/09 12:04:33;;;;;;;6.30;2.50;;;;;;;20.96;65.24;100154.22;5017800;28;20058;-82
2022/09/09 12:07:04;;;;;;;8.07;2.47;;;;;;;21.03;65.29;100146.09;5017122;28;20057;-82
2022/09/09 12:09:42;;;;;;;9.57;2.97;;;;;;;20.91;64.29;100153.31;5016866;28;20085;-82
2022/09/09 12:12:25;;;;;;;6.55;2.72;;;;;;;21.01;65.18;100159.66;5017043;28;20114;-83